createdAt,value
2019-04-04T00:00:30.308Z,98721.16
2019-04-04T00:02:59.770Z,98728.02
2019-04-04T00:05:29.257Z,98728.22
2019-04-04T00:08:00.088Z,98729.88
2019-04-04T00:10:29.731Z,98738.48
2019-04-04T00:12:59.243Z,98733.16
2019-04-04T00:15:28.891Z,98724.86
2019-04-04T00:17:58.471Z,98717.66
2019-04-04T00:20:27.938Z,98710.50
2019-04-04T00:22:57.197Z,98701.27
2019-04-04T00:25:26.783Z,98700.25
2019-04-04T00:27:56.412Z,98719.84
2019-04-04T00:30:26.091Z,98721.47
2019-04-04T00:32:55.652Z,98727.53
2019-04-04T00:35:25.259Z,98725.27
2019-04-04T00:37:54.562Z,98717.38
2019-04-04T00:40:23.742Z,98725.16
2019-04-04T00:42:53.204Z,98722.16
2019-04-04T00:45:22.672Z,98716.44
2019-04-04T00:47:52.222Z,98721.67
2019-04-04T00:50:21.930Z,98716.55
2019-04-04T00:52:51.516Z,98712.13
2019-04-04T00:55:20.961Z,98707.92
2019-04-04T00:57:50.752Z,98712.95
2019-04-04T01:00:23.826Z,98705.27
2019-04-04T01:02:53.181Z,98708.56
2019-04-04T01:05:23.937Z,98702.91
2019-04-04T01:07:53.086Z,98705.37
2019-04-04T01:10:22.563Z,98705.37
2019-04-04T01:12:52.706Z,98707.33
2019-04-04T01:15:22.214Z,98703.21
2019-04-04T01:17:51.719Z,98709.78
2019-04-04T01:20:21.153Z,98706.09
2019-04-04T01:22:55.753Z,98705.67
2019-04-04T01:25:23.546Z,98704.97
2019-04-04T01:27:53.138Z,98705.19
2019-04-04T01:30:22.607Z,98690.92
2019-04-04T01:32:52.125Z,98694.09
2019-04-04T01:35:22.789Z,98693.49
2019-04-04T01:37:52.884Z,98678.31
2019-04-04T01:40:22.497Z,98659.35
2019-04-04T01:42:51.945Z,98632.19
2019-04-04T01:45:21.421Z,98633.86
2019-04-04T01:47:50.884Z,98639.88
2019-04-04T01:50:22.449Z,98625.10
2019-04-04T01:52:53.160Z,98631.47
2019-04-04T01:55:24.323Z,98630.67
2019-04-04T01:57:53.843Z,98629.83
2019-04-04T02:00:23.303Z,98618.87
2019-04-04T02:02:52.830Z,98617.11
2019-04-04T02:05:22.437Z,98608.63
2019-04-04T02:07:51.966Z,98618.98
2019-04-04T02:10:21.600Z,98594.80
2019-04-04T02:12:51.355Z,98599.61
2019-04-04T02:15:20.992Z,98597.03
2019-04-04T02:17:51.059Z,98602.75
2019-04-04T02:20:21.597Z,98601.16
2019-04-04T02:22:51.464Z,98610.39
2019-04-04T02:25:20.952Z,98624.92
2019-04-04T02:27:50.486Z,98628.10
2019-04-04T02:30:20.067Z,98633.01
2019-04-04T02:32:49.510Z,98622.70
2019-04-04T02:35:19.087Z,98602.30
2019-04-04T02:37:48.030Z,98602.30
2019-04-04T02:40:17.239Z,98606.09
2019-04-04T02:42:46.687Z,98613.96
2019-04-04T02:45:16.259Z,98614.56
2019-04-04T02:47:50.323Z,98595.34
2019-04-04T02:50:17.402Z,98573.20
2019-04-04T02:52:47.102Z,98547.91
2019-04-04T02:55:16.682Z,98565.12
2019-04-04T02:57:48.414Z,98568.30
2019-04-04T03:00:18.075Z,98559.80
2019-04-04T03:02:47.672Z,98560.62
2019-04-04T03:05:19.315Z,98568.06
2019-04-04T03:07:48.435Z,98581.38
2019-04-04T03:10:17.980Z,98582.32
2019-04-04T03:12:47.593Z,98579.66
2019-04-04T03:15:17.201Z,98578.23
2019-04-04T03:17:46.816Z,98589.20
2019-04-04T03:20:17.196Z,98575.32
2019-04-04T03:22:47.015Z,98576.19
2019-04-04T03:25:16.607Z,98594.37
2019-04-04T03:27:46.230Z,98584.09
2019-04-04T03:30:17.315Z,98566.24
2019-04-04T03:32:52.634Z,98572.61
2019-04-04T03:35:25.807Z,98577.44
2019-04-04T03:37:50.221Z,98575.10
2019-04-04T03:40:19.748Z,98581.34
2019-04-04T03:42:49.235Z,98585.25
2019-04-04T03:45:18.764Z,98581.56
2019-04-04T03:47:48.379Z,98576.53
2019-04-04T03:50:17.895Z,98575.63
2019-04-04T03:52:47.562Z,98564.02
2019-04-04T03:55:17.093Z,98564.74
2019-04-04T03:57:46.791Z,98565.77
2019-04-04T04:00:19.378Z,98550.62
2019-04-04T04:02:50.132Z,98524.56
2019-04-04T04:05:23.100Z,98499.84
2019-04-04T04:07:52.703Z,98499.84
2019-04-04T04:10:21.939Z,98475.84
2019-04-04T04:12:51.606Z,98460.69
2019-04-04T04:15:21.306Z,98467.84
2019-04-04T04:17:50.856Z,98475.81
2019-04-04T04:20:22.166Z,98483.33
2019-04-04T04:22:51.784Z,98516.41
2019-04-04T04:25:21.322Z,98535.34
2019-04-04T04:27:51.172Z,98541.67
2019-04-04T04:30:20.611Z,98532.00
2019-04-04T04:32:55.688Z,98516.63
2019-04-04T04:35:21.593Z,98508.38
2019-04-04T04:37:53.454Z,98503.05
2019-04-04T04:40:22.393Z,98484.87
2019-04-04T04:42:51.956Z,98480.49
2019-04-04T04:45:21.246Z,98476.14
2019-04-04T04:47:50.964Z,98477.05
2019-04-04T04:50:21.324Z,98487.04
2019-04-04T04:52:51.271Z,98479.39
2019-04-04T04:55:24.529Z,98487.61
2019-04-04T04:57:56.337Z,98498.05
2019-04-04T05:00:27.536Z,98501.18
2019-04-04T05:02:56.299Z,98502.11
2019-04-04T05:05:25.591Z,98495.30
2019-04-04T05:07:55.242Z,98502.13
2019-04-04T05:10:24.247Z,98511.23
2019-04-04T05:12:53.879Z,98515.44
2019-04-04T05:15:23.026Z,98506.50
2019-04-04T05:17:52.321Z,98486.94
2019-04-04T05:20:24.871Z,98484.20
2019-04-04T05:22:52.799Z,98480.66
2019-04-04T05:25:22.396Z,98484.08
2019-04-04T05:27:51.980Z,98476.45
2019-04-04T05:30:21.457Z,98474.64
2019-04-04T05:32:52.419Z,98479.33
2019-04-04T05:35:22.067Z,98486.42
2019-04-04T05:37:51.311Z,98487.60
2019-04-04T05:40:23.145Z,98486.66
2019-04-04T05:42:52.288Z,98492.81
2019-04-04T05:45:21.858Z,98497.48
2019-04-04T05:47:54.975Z,98500.12
2019-04-04T05:50:22.644Z,98489.84
2019-04-04T05:52:52.024Z,98493.28
2019-04-04T05:55:21.507Z,98501.73
2019-04-04T05:57:51.613Z,98484.52
2019-04-04T06:00:21.488Z,98468.20
2019-04-04T06:02:50.962Z,98475.67
2019-04-04T06:05:20.543Z,98488.94
2019-04-04T06:07:50.039Z,98491.11
2019-04-04T06:10:19.565Z,98488.91
2019-04-04T06:12:49.204Z,98491.01
2019-04-04T06:15:18.750Z,98490.66
2019-04-04T06:17:48.348Z,98493.96
2019-04-04T06:20:19.750Z,98493.89
2019-04-04T06:22:50.073Z,98493.38
2019-04-04T06:25:20.595Z,98486.15
2019-04-04T06:27:50.146Z,98474.83
2019-04-04T06:30:20.239Z,98462.60
2019-04-04T06:32:50.153Z,98478.06
2019-04-04T06:35:19.627Z,98476.72
2019-04-04T06:37:51.336Z,98471.91
2019-04-04T06:40:20.481Z,98470.80
2019-04-04T06:42:49.965Z,98476.20
2019-04-04T06:45:19.514Z,98482.36
2019-04-04T06:47:49.225Z,98471.87
2019-04-04T06:50:18.780Z,98474.30
2019-04-04T06:52:50.420Z,98481.36
2019-04-04T06:55:19.415Z,98494.20
2019-04-04T06:57:51.284Z,98501.68
2019-04-04T07:00:20.085Z,98502.28
2019-04-04T07:02:49.742Z,98498.22
2019-04-04T07:05:19.212Z,98486.58
2019-04-04T07:07:48.731Z,98469.82
2019-04-04T07:10:20.957Z,98479.61
2019-04-04T07:12:49.667Z,98486.58
2019-04-04T07:15:19.338Z,98482.42
2019-04-04T07:17:50.870Z,98471.93
2019-04-04T07:20:20.499Z,98466.00
2019-04-04T07:22:49.974Z,98469.10
2019-04-04T07:25:19.454Z,98471.77
2019-04-04T07:27:48.984Z,98471.83
2019-04-04T07:30:18.599Z,98476.34
2019-04-04T07:32:48.066Z,98482.23
2019-04-04T07:35:17.725Z,98480.28
2019-04-04T07:37:48.402Z,98483.97
2019-04-04T07:40:20.298Z,98485.90
2019-04-04T07:42:49.191Z,98497.68
2019-04-04T07:45:20.680Z,98498.41
2019-04-04T07:47:51.896Z,98498.41
2019-04-04T07:50:21.294Z,98503.53
2019-04-04T07:52:50.663Z,98501.38
2019-04-04T07:55:20.233Z,98501.38
2019-04-04T07:57:51.247Z,98497.31
2019-04-04T08:00:21.231Z,98504.33
2019-04-04T08:02:50.777Z,98497.53
2019-04-04T08:05:20.267Z,98502.63
2019-04-04T08:07:49.858Z,98505.91
2019-04-04T08:10:20.798Z,98508.56
2019-04-04T08:12:50.651Z,98512.05
2019-04-04T08:15:20.179Z,98513.66
2019-04-04T08:17:49.705Z,98514.64
2019-04-04T08:20:19.348Z,98497.98
2019-04-04T08:22:48.803Z,98491.51
2019-04-04T08:25:18.123Z,98489.82
2019-04-04T08:27:47.651Z,98487.42
2019-04-04T08:30:17.265Z,98491.29
2019-04-04T08:32:46.861Z,98489.00
2019-04-04T08:35:16.090Z,98474.42
2019-04-04T08:37:46.448Z,98479.67
2019-04-04T08:40:16.062Z,98478.25
2019-04-04T08:42:45.662Z,98466.39
2019-04-04T08:45:15.341Z,98472.11
2019-04-04T08:47:44.903Z,98468.02
2019-04-04T08:50:14.535Z,98462.36
2019-04-04T08:52:43.720Z,98462.53
2019-04-04T08:55:13.461Z,98464.73
2019-04-04T08:57:43.565Z,98467.84
2019-04-04T09:00:13.602Z,98469.37
2019-04-04T09:02:43.061Z,98474.23
2019-04-04T09:05:13.071Z,98478.13
2019-04-04T09:07:42.584Z,98483.16
2019-04-04T09:10:12.619Z,98499.92
2019-04-04T09:12:42.205Z,98507.52
2019-04-04T09:15:12.326Z,98503.47
2019-04-04T09:17:41.895Z,98493.97
2019-04-04T09:20:11.257Z,98483.89
2019-04-04T09:22:41.273Z,98482.56
2019-04-04T09:25:12.302Z,98468.75
2019-04-04T09:27:42.044Z,98476.30
2019-04-04T09:30:13.620Z,98479.48
2019-04-04T09:32:42.978Z,98495.51
2019-04-04T09:35:12.503Z,98494.20
2019-04-04T09:37:42.097Z,98483.80
2019-04-04T09:40:11.899Z,98471.06
2019-04-04T09:42:41.467Z,98467.38
2019-04-04T09:45:12.474Z,98469.45
2019-04-04T09:47:42.109Z,98466.83
2019-04-04T09:50:12.036Z,98458.92
2019-04-04T09:52:41.633Z,98447.91
2019-04-04T09:55:11.187Z,98452.40
2019-04-04T09:57:40.749Z,98450.42
2019-04-04T10:00:12.843Z,98446.54
2019-04-04T10:02:42.578Z,98442.12
2019-04-04T10:05:13.773Z,98432.06
2019-04-04T10:07:43.037Z,98428.80
2019-04-04T10:10:13.199Z,98431.67
2019-04-04T10:12:42.536Z,98439.02
2019-04-04T10:15:13.919Z,98435.83
2019-04-04T10:17:44.111Z,98441.05
2019-04-04T10:20:14.313Z,98449.31
2019-04-04T10:22:43.764Z,98454.72
2019-04-04T10:25:14.960Z,98467.26
2019-04-04T10:27:44.567Z,98473.86
2019-04-04T10:30:14.385Z,98485.97
2019-04-04T10:32:44.286Z,98490.09
2019-04-04T10:35:13.788Z,98496.55
2019-04-04T10:37:43.250Z,98494.65
2019-04-04T10:40:13.780Z,98480.70
2019-04-04T10:42:43.305Z,98485.98
2019-04-04T10:45:12.893Z,98490.47
2019-04-04T10:47:42.173Z,98492.51
2019-04-04T10:50:11.904Z,98498.55
2019-04-04T10:52:41.362Z,98498.36
2019-04-04T10:55:11.047Z,98503.25
2019-04-04T10:57:40.714Z,98506.73
2019-04-04T11:00:12.224Z,98516.41
2019-04-04T11:02:42.346Z,98520.23
2019-04-04T11:05:12.348Z,98513.45
2019-04-04T11:07:41.890Z,98510.70
2019-04-04T11:10:11.692Z,98495.88
2019-04-04T11:12:41.320Z,98501.72
2019-04-04T11:15:11.002Z,98495.91
2019-04-04T11:17:40.559Z,98506.00
2019-04-04T11:20:10.393Z,98506.19
2019-04-04T11:22:39.842Z,98501.17
2019-04-04T11:25:09.759Z,98493.66
2019-04-04T11:27:39.217Z,98490.54
2019-04-04T11:30:09.856Z,98485.97
2019-04-04T11:32:39.189Z,98496.33
2019-04-04T11:35:09.205Z,98503.66
2019-04-04T11:37:38.673Z,98512.12
2019-04-04T11:40:08.358Z,98513.96
2019-04-04T11:42:37.972Z,98500.69
2019-04-04T11:45:07.643Z,98490.40
2019-04-04T11:47:37.551Z,98479.55
2019-04-04T11:50:08.095Z,98482.82
2019-04-04T11:52:37.593Z,98476.87
2019-04-04T11:55:07.511Z,98496.62
2019-04-04T11:57:37.190Z,98496.23
2019-04-04T12:00:12.333Z,98498.70
2019-04-04T12:02:41.788Z,98489.75
2019-04-04T12:05:11.515Z,98492.02
2019-04-04T12:07:40.961Z,98498.28
2019-04-04T12:10:10.892Z,98517.49
2019-04-04T12:12:40.569Z,98517.27
2019-04-04T12:15:10.329Z,98528.80
2019-04-04T12:17:39.768Z,98523.98
2019-04-04T12:20:09.883Z,98515.93
2019-04-04T12:22:41.371Z,98508.27
2019-04-04T12:25:11.185Z,98512.00
2019-04-04T12:27:40.697Z,98512.23
2019-04-04T12:30:11.156Z,98527.16
2019-04-04T12:32:40.610Z,98528.69
2019-04-04T12:35:10.568Z,98544.70
2019-04-04T12:37:40.140Z,98552.31
2019-04-04T12:40:20.446Z,98560.84
2019-04-04T12:42:42.080Z,98563.59
2019-04-04T12:45:12.106Z,98569.56
2019-04-04T12:47:41.553Z,98566.17
2019-04-04T12:50:11.547Z,98559.87
2019-04-04T12:52:40.998Z,98548.22
2019-04-04T12:55:10.259Z,98555.38
2019-04-04T12:57:39.679Z,98557.98
2019-04-04T13:00:11.076Z,98556.02
2019-04-04T13:02:40.605Z,98564.66
2019-04-04T13:05:10.716Z,98580.56
2019-04-04T13:07:42.071Z,98587.84
2019-04-04T13:10:12.433Z,98587.92
2019-04-04T13:12:41.907Z,98596.39
2019-04-04T13:15:11.829Z,98588.28
2019-04-04T13:17:41.393Z,98589.55
2019-04-04T13:20:11.727Z,98580.53
2019-04-04T13:22:41.159Z,98586.91
2019-04-04T13:25:10.984Z,98597.44
2019-04-04T13:27:40.516Z,98609.70
2019-04-04T13:30:12.998Z,98610.55
2019-04-04T13:32:42.511Z,98616.91
2019-04-04T13:35:12.457Z,98614.03
2019-04-04T13:37:41.873Z,98622.92
2019-04-04T13:40:14.081Z,98622.72
2019-04-04T13:42:43.634Z,98608.78
2019-04-04T13:45:13.436Z,98613.71
2019-04-04T13:47:43.060Z,98606.86
2019-04-04T13:50:13.131Z,98596.18
2019-04-04T13:52:42.589Z,98591.84
2019-04-04T13:55:12.185Z,98611.05
2019-04-04T13:57:41.664Z,98628.73
2019-04-04T14:00:11.969Z,98640.89
2019-04-04T14:02:41.574Z,98640.98
2019-04-04T14:05:14.290Z,98634.25
2019-04-04T14:07:44.124Z,98624.28
2019-04-04T14:10:16.972Z,98633.48
2019-04-04T14:12:45.129Z,98634.38
2019-04-04T14:15:14.560Z,98654.83
2019-04-04T14:17:44.327Z,98664.68
2019-04-04T14:20:13.754Z,98683.16
2019-04-04T14:22:45.015Z,98686.50
2019-04-04T14:25:14.086Z,98679.66
2019-04-04T14:27:43.620Z,98676.58
2019-04-04T14:30:13.925Z,98677.91
2019-04-04T14:32:43.828Z,98689.27
2019-04-04T14:35:13.497Z,98669.19
2019-04-04T14:37:43.093Z,98668.31
2019-04-04T14:40:12.773Z,98659.08
2019-04-04T14:42:41.961Z,98653.66
2019-04-04T14:45:11.754Z,98652.95
2019-04-04T14:47:41.750Z,98640.66
2019-04-04T14:50:11.413Z,98635.45
2019-04-04T14:52:41.184Z,98632.70
2019-04-04T14:55:11.168Z,98632.19
2019-04-04T14:57:40.871Z,98638.34
2019-04-04T15:00:10.782Z,98648.23
2019-04-04T15:02:40.408Z,98664.77
2019-04-04T15:05:09.970Z,98670.77
2019-04-04T15:07:39.490Z,98696.72
2019-04-04T15:10:09.635Z,98707.46
2019-04-04T15:12:39.060Z,98690.09
2019-04-04T15:15:09.179Z,98688.23
2019-04-04T15:17:38.749Z,98694.08
2019-04-04T15:20:10.252Z,98694.08
2019-04-04T15:22:39.693Z,98697.30
2019-04-04T15:25:09.666Z,98698.11
2019-04-04T15:27:39.171Z,98692.00
2019-04-04T15:30:09.258Z,98689.06
2019-04-04T15:32:38.861Z,98691.77
2019-04-04T15:35:09.319Z,98696.70
2019-04-04T15:37:38.786Z,98699.95
2019-04-04T15:40:08.254Z,98708.98
2019-04-04T15:42:37.772Z,98722.50
2019-04-04T15:45:07.640Z,98741.20
2019-04-04T15:47:37.124Z,98738.55
2019-04-04T15:50:07.884Z,98741.22
2019-04-04T15:52:37.381Z,98737.84
2019-04-04T15:55:07.662Z,98756.11
2019-04-04T15:57:37.364Z,98756.11
2019-04-04T16:00:07.950Z,98759.80
2019-04-04T16:02:37.580Z,98759.80
2019-04-04T16:05:08.174Z,98761.00
2019-04-04T16:07:37.761Z,98767.31
2019-04-04T16:10:07.872Z,98763.01
2019-04-04T16:12:41.979Z,98764.85
2019-04-04T16:15:14.125Z,98760.14
2019-04-04T16:17:43.711Z,98756.97
2019-04-04T16:20:14.858Z,98757.77
2019-04-04T16:22:44.200Z,98757.77
2019-04-04T16:25:13.970Z,98760.46
2019-04-04T16:27:44.302Z,98761.49
2019-04-04T16:30:14.171Z,98769.13
2019-04-04T16:32:43.653Z,98776.05
2019-04-04T16:35:13.314Z,98779.33
2019-04-04T16:37:42.652Z,98773.97
2019-04-04T16:40:12.479Z,98773.92
2019-04-04T16:42:41.664Z,98780.05
2019-04-04T16:45:11.465Z,98772.56
2019-04-04T16:47:41.192Z,98772.05
2019-04-04T16:50:11.283Z,98773.91
2019-04-04T16:52:40.811Z,98785.28
2019-04-04T16:55:10.665Z,98787.41
2019-04-04T16:57:43.175Z,98788.14
2019-04-04T17:00:13.492Z,98792.30
2019-04-04T17:02:42.982Z,98790.28
2019-04-04T17:05:12.977Z,98786.03
2019-04-04T17:07:42.562Z,98778.06
2019-04-04T17:10:12.284Z,98791.39
2019-04-04T17:12:41.495Z,98797.16
2019-04-04T17:15:11.822Z,98799.41
2019-04-04T17:17:41.477Z,98804.81
2019-04-04T17:20:10.687Z,98809.27
2019-04-04T17:22:40.160Z,98807.77
2019-04-04T17:25:09.776Z,98804.91
2019-04-04T17:27:39.306Z,98808.61
2019-04-04T17:30:09.417Z,98812.97
2019-04-04T17:32:38.872Z,98818.52
2019-04-04T17:35:08.663Z,98821.15
2019-04-04T17:37:38.230Z,98819.42
2019-04-04T17:40:09.463Z,98826.25
2019-04-04T17:42:39.026Z,98833.99
2019-04-04T17:45:09.398Z,98848.94
2019-04-04T17:47:38.882Z,98851.73
2019-04-04T17:50:13.268Z,98852.95
2019-04-04T17:52:42.457Z,98851.52
2019-04-04T17:55:12.334Z,98841.36
2019-04-04T17:57:42.022Z,98844.67
2019-04-04T18:00:12.938Z,98854.44
2019-04-04T18:02:42.581Z,98857.11
2019-04-04T18:05:12.557Z,98868.30
2019-04-04T18:07:42.086Z,98876.19
2019-04-04T18:10:12.374Z,98875.67
2019-04-04T18:12:41.835Z,98880.67
2019-04-04T18:15:11.651Z,98881.41
2019-04-04T18:17:41.106Z,98877.61
2019-04-04T18:20:11.485Z,98877.92
2019-04-04T18:22:41.007Z,98879.46
2019-04-04T18:25:10.876Z,98882.67
2019-04-04T18:27:42.542Z,98887.09
2019-04-04T18:30:11.968Z,98881.13
2019-04-04T18:32:41.229Z,98896.53
2019-04-04T18:35:11.667Z,98899.80
2019-04-04T18:37:41.585Z,98895.30
2019-04-04T18:40:11.770Z,98900.84
2019-04-04T18:42:52.556Z,98903.39
2019-04-04T18:45:13.933Z,98909.97
2019-04-04T18:47:43.399Z,98917.67
2019-04-04T18:50:13.523Z,98924.05
2019-04-04T18:52:43.076Z,98922.48
2019-04-04T18:55:19.746Z,98925.34
2019-04-04T18:57:43.524Z,98932.74
2019-04-04T19:00:13.927Z,98940.34
2019-04-04T19:02:43.664Z,98943.72
2019-04-04T19:05:13.657Z,98947.23
2019-04-04T19:07:43.290Z,98944.55
2019-04-04T19:10:12.554Z,98944.95
2019-04-04T19:12:42.145Z,98944.35
2019-04-04T19:15:11.884Z,98945.08
2019-04-04T19:17:41.407Z,98948.16
2019-04-04T19:20:11.613Z,98946.83
2019-04-04T19:22:41.159Z,98942.09
2019-04-04T19:25:13.653Z,98939.01
2019-04-04T19:27:42.340Z,98943.23
2019-04-04T19:30:12.110Z,98942.30
2019-04-04T19:32:41.363Z,98942.19
2019-04-04T19:35:11.487Z,98956.37
2019-04-04T19:37:41.107Z,98961.27
2019-04-04T19:40:11.133Z,98975.34
2019-04-04T19:42:40.788Z,98972.15
2019-04-04T19:45:10.647Z,98964.67
2019-04-04T19:47:39.891Z,98963.34
2019-04-04T19:50:11.193Z,98954.20
2019-04-04T19:52:40.756Z,98956.03
2019-04-04T19:55:10.902Z,98962.92
2019-04-04T19:57:40.264Z,98983.14
2019-04-04T20:00:10.899Z,99001.30
2019-04-04T20:02:40.427Z,98996.58
2019-04-04T20:05:10.444Z,98998.31
2019-04-04T20:07:39.690Z,99001.70
2019-04-04T20:10:09.586Z,98993.91
2019-04-04T20:12:39.105Z,98997.88
2019-04-04T20:15:08.815Z,99013.06
2019-04-04T20:17:38.112Z,99009.40
2019-04-04T20:20:08.676Z,99008.77
2019-04-04T20:22:38.093Z,99011.95
2019-04-04T20:25:07.729Z,99012.66
2019-04-04T20:27:37.580Z,99003.86
2019-04-04T20:30:09.223Z,99011.96
2019-04-04T20:32:39.471Z,99010.04
2019-04-04T20:35:09.099Z,99015.17
2019-04-04T20:37:38.580Z,99028.05
2019-04-04T20:40:08.320Z,99023.88
2019-04-04T20:42:37.837Z,99019.58
2019-04-04T20:45:07.654Z,99016.38
2019-04-04T20:47:37.229Z,99027.95
2019-04-04T20:50:07.917Z,99024.46
2019-04-04T20:52:38.969Z,99006.48
2019-04-04T20:55:08.181Z,98992.96
2019-04-04T20:57:37.638Z,99006.30
2019-04-04T21:00:07.833Z,99007.50
2019-04-04T21:02:37.289Z,99007.94
2019-04-04T21:05:07.735Z,99010.09
2019-04-04T21:07:37.611Z,99000.12
2019-04-04T21:10:07.429Z,99003.20
2019-04-04T21:12:37.003Z,99012.77
2019-04-04T21:15:07.239Z,99007.94
2019-04-04T21:17:37.739Z,99013.66
2019-04-04T21:20:07.550Z,99014.38
2019-04-04T21:22:37.031Z,99014.75
2019-04-04T21:25:09.904Z,99016.02
2019-04-04T21:27:39.404Z,99018.48
2019-04-04T21:30:09.309Z,99023.09
2019-04-04T21:32:38.636Z,99020.84
2019-04-04T21:35:08.448Z,99017.15
2019-04-04T21:37:37.881Z,99013.45
2019-04-04T21:40:07.587Z,99019.67
2019-04-04T21:42:37.091Z,99018.48
2019-04-04T21:45:07.404Z,99023.06
2019-04-04T21:47:36.666Z,99017.11
2019-04-04T21:50:06.215Z,99021.86
2019-04-04T21:52:36.520Z,99034.61
2019-04-04T21:55:07.041Z,99031.41
2019-04-04T21:57:36.559Z,99045.21
2019-04-04T22:00:07.897Z,99040.24
2019-04-04T22:02:37.577Z,99049.58
2019-04-04T22:05:07.051Z,99056.80
2019-04-04T22:07:36.670Z,99068.45
2019-04-04T22:10:07.575Z,99069.98
2019-04-04T22:12:37.144Z,99068.12
2019-04-04T22:15:08.522Z,99064.04
2019-04-04T22:17:38.056Z,99071.73
2019-04-04T22:20:07.947Z,99070.92
2019-04-04T22:22:37.702Z,99076.45
2019-04-04T22:25:07.253Z,99072.14
2019-04-04T22:27:37.019Z,99065.27
2019-04-04T22:30:08.095Z,99066.14
2019-04-04T22:32:37.656Z,99065.69
2019-04-04T22:35:07.562Z,99067.11
2019-04-04T22:37:37.096Z,99062.39
2019-04-04T22:40:07.239Z,99065.11
2019-04-04T22:42:36.856Z,99057.88
2019-04-04T22:45:09.059Z,99059.23
2019-04-04T22:47:38.561Z,99057.64
2019-04-04T22:50:08.147Z,99057.58
2019-04-04T22:52:38.513Z,99055.84
2019-04-04T22:55:07.813Z,99061.06
2019-04-04T22:57:37.144Z,99069.25
2019-04-04T23:00:07.842Z,99069.73
2019-04-04T23:02:37.264Z,99075.36
2019-04-04T23:05:07.241Z,99078.19
2019-04-04T23:07:36.866Z,99084.39
2019-04-04T23:10:08.497Z,99082.34
2019-04-04T23:12:37.853Z,99082.86
2019-04-04T23:15:08.360Z,99079.22
2019-04-04T23:17:37.407Z,99080.91
2019-04-04T23:20:09.294Z,99082.59
2019-04-04T23:22:47.017Z,99092.38
2019-04-04T23:25:09.252Z,99090.95
2019-04-04T23:27:38.830Z,99102.94
2019-04-04T23:30:08.169Z,99109.61
2019-04-04T23:32:37.709Z,99116.33
2019-04-04T23:35:07.935Z,99114.53
2019-04-04T23:37:37.482Z,99114.59
2019-04-04T23:40:07.277Z,99116.69
2019-04-04T23:42:36.769Z,99122.58
2019-04-04T23:45:07.885Z,99125.92
2019-04-04T23:47:43.337Z,99131.33
2019-04-04T23:50:08.757Z,99129.75
2019-04-04T23:52:38.266Z,99125.48
2019-04-04T23:55:07.972Z,99125.18
2019-04-04T23:57:37.518Z,99127.11
